createdAt,value
2022-12-14T00:01:25.074Z,22.95
2022-12-14T00:03:52.388Z,18.42
2022-12-14T00:06:28.303Z,22.50
2022-12-14T00:08:58.480Z,19.83
2022-12-14T00:11:25.676Z,20.48
2022-12-14T00:13:57.384Z,19.15
2022-12-14T00:16:26.184Z,19.98
2022-12-14T00:18:54.824Z,18.50
2022-12-14T00:21:22.306Z,20.02
2022-12-14T00:23:50.500Z,20.42
2022-12-14T00:26:28.353Z,19.95
2022-12-14T00:28:55.944Z,25.48
2022-12-14T00:31:23.785Z,17.23
2022-12-14T00:33:50.964Z,17.60
2022-12-14T00:36:17.854Z,20.38
2022-12-14T00:38:44.882Z,24.45
2022-12-14T00:41:12.429Z,18.63
2022-12-14T00:43:39.320Z,21.23
2022-12-14T00:46:06.283Z,20.17
2022-12-14T00:48:33.452Z,18.35
2022-12-14T00:51:00.162Z,19.38
2022-12-14T00:53:26.846Z,19.30
2022-12-14T00:55:54.025Z,20.15
2022-12-14T00:58:22.734Z,22.45
2022-12-14T01:01:03.194Z,20.77
2022-12-14T01:03:30.563Z,23.80
2022-12-14T01:05:57.986Z,18.70
2022-12-14T01:08:25.103Z,19.35
2022-12-14T01:10:52.488Z,18.02
2022-12-14T01:13:20.899Z,18.27
2022-12-14T01:15:47.707Z,19.27
2022-12-14T01:18:14.546Z,19.60
2022-12-14T01:20:41.301Z,20.40
2022-12-14T01:23:08.155Z,22.13
2022-12-14T01:25:34.945Z,21.33
2022-12-14T01:28:01.618Z,18.33
2022-12-14T01:30:28.329Z,19.75
2022-12-14T01:32:55.118Z,22.67
2022-12-14T01:35:21.788Z,19.58
2022-12-14T01:37:49.239Z,22.88
2022-12-14T01:40:16.260Z,20.40
2022-12-14T01:42:43.425Z,17.13
2022-12-14T01:45:18.451Z,16.95
2022-12-14T01:47:51.498Z,17.00
2022-12-14T01:50:31.569Z,17.95
2022-12-14T01:53:01.961Z,19.73
2022-12-14T01:55:34.495Z,16.40
2022-12-14T01:58:09.464Z,17.58
2022-12-14T02:00:36.981Z,17.98
2022-12-14T02:03:10.689Z,21.33
2022-12-14T02:05:41.974Z,17.23
2022-12-14T02:08:09.096Z,20.48
2022-12-14T02:10:36.217Z,19.52
2022-12-14T02:13:14.780Z,16.40
2022-12-14T02:15:42.153Z,15.80
2022-12-14T02:18:13.970Z,14.35
2022-12-14T02:21:02.515Z,19.02
2022-12-14T02:23:49.232Z,20.80
2022-12-14T02:26:25.533Z,21.77
2022-12-14T02:29:29.583Z,20.38
2022-12-14T02:32:05.114Z,21.02
2022-12-14T02:35:05.552Z,21.92
2022-12-14T02:37:43.529Z,19.92
2022-12-14T02:40:54.355Z,23.98
2022-12-14T02:43:35.043Z,20.67
2022-12-14T02:46:18.154Z,23.60
2022-12-14T02:49:07.404Z,22.30
2022-12-14T02:51:45.418Z,22.35
2022-12-14T02:54:33.757Z,23.05
2022-12-14T02:57:13.443Z,24.40
2022-12-14T02:59:41.058Z,24.98
2022-12-14T03:02:08.150Z,24.38
2022-12-14T03:04:45.832Z,24.75
2022-12-14T03:07:33.839Z,25.15
2022-12-14T03:10:14.328Z,27.13
2022-12-14T03:12:43.250Z,28.75
2022-12-14T03:15:12.822Z,27.75
2022-12-14T03:17:40.556Z,27.77
2022-12-14T03:20:12.772Z,33.20
2022-12-14T03:22:43.775Z,28.80
2022-12-14T03:25:21.658Z,28.45
2022-12-14T03:27:55.899Z,30.75
2022-12-14T03:30:57.814Z,25.27
2022-12-14T03:33:16.453Z,27.10
2022-12-14T03:35:50.578Z,26.55
2022-12-14T03:38:21.357Z,32.33
2022-12-14T03:41:22.188Z,30.95
2022-12-14T03:44:16.072Z,29.40
2022-12-14T03:47:01.216Z,29.15
2022-12-14T03:52:12.033Z,27.15
2022-12-14T03:54:58.352Z,29.65
2022-12-14T03:57:56.738Z,27.80
2022-12-14T04:00:24.639Z,34.22
2022-12-14T04:03:00.642Z,29.52
2022-12-14T04:05:32.707Z,29.60
2022-12-14T04:08:20.022Z,28.55
2022-12-14T04:11:07.941Z,30.40
2022-12-14T04:14:02.616Z,28.90
2022-12-14T04:16:51.992Z,33.63
2022-12-14T04:19:31.837Z,30.83
2022-12-14T04:22:09.080Z,33.22
2022-12-14T04:25:07.380Z,33.25
2022-12-14T04:27:39.852Z,34.63
2022-12-14T04:30:08.499Z,32.85
2022-12-14T04:32:41.648Z,34.92
2022-12-14T04:35:33.552Z,31.95
2022-12-14T04:38:18.449Z,35.47
2022-12-14T04:40:46.050Z,32.92
2022-12-14T04:43:19.205Z,37.05
2022-12-14T04:45:51.046Z,34.95
2022-12-14T04:48:46.731Z,35.50
2022-12-14T04:51:27.371Z,39.10
2022-12-14T04:53:57.957Z,41.40
2022-12-14T04:56:42.922Z,40.63
2022-12-14T04:59:09.809Z,40.80
2022-12-14T05:01:58.538Z,42.53
2022-12-14T05:04:25.472Z,42.33
2022-12-14T05:07:05.255Z,43.95
2022-12-14T05:09:55.295Z,43.95
2022-12-14T05:12:31.164Z,42.75
2022-12-14T05:15:12.754Z,38.97
2022-12-14T05:17:41.190Z,40.90
2022-12-14T05:20:18.211Z,38.30
2022-12-14T05:22:45.092Z,37.72
2022-12-14T05:25:11.855Z,40.25
2022-12-14T05:27:38.575Z,39.78
2022-12-14T05:30:06.561Z,41.33
2022-12-14T05:32:33.464Z,40.75
2022-12-14T05:35:00.145Z,34.50
2022-12-14T05:37:26.785Z,38.38
2022-12-14T05:39:54.463Z,39.78
2022-12-14T05:42:21.482Z,33.40
2022-12-14T05:44:48.627Z,39.28
2022-12-14T05:47:15.619Z,36.40
2022-12-14T05:49:42.340Z,37.20
2022-12-14T05:52:09.097Z,43.00
2022-12-14T05:54:35.799Z,48.03
2022-12-14T05:57:02.487Z,49.22
2022-12-14T05:59:29.166Z,48.90
2022-12-14T06:01:55.850Z,41.58
2022-12-14T06:04:22.674Z,39.72
2022-12-14T06:06:50.428Z,45.55
2022-12-14T06:09:17.632Z,51.22
2022-12-14T06:11:45.592Z,47.13
2022-12-14T06:14:12.809Z,48.30
2022-12-14T06:16:41.245Z,43.30
2022-12-14T06:19:08.348Z,42.90
2022-12-14T06:21:37.766Z,47.67
2022-12-14T06:24:05.673Z,60.47
2022-12-14T06:26:33.853Z,50.88
2022-12-14T06:29:00.544Z,44.75
2022-12-14T06:31:29.422Z,44.42
2022-12-14T06:33:59.786Z,46.72
2022-12-14T06:36:29.130Z,48.25
2022-12-14T06:38:56.983Z,46.40
2022-12-14T06:41:24.198Z,38.88
2022-12-14T06:43:51.390Z,45.30
2022-12-14T06:46:21.226Z,49.30
2022-12-14T06:48:52.624Z,44.42
2022-12-14T06:51:20.335Z,37.28
2022-12-14T06:53:51.100Z,42.85
2022-12-14T06:56:19.087Z,44.65
2022-12-14T06:58:46.231Z,46.60
2022-12-14T07:01:18.564Z,47.92
2022-12-14T07:04:07.492Z,37.40
2022-12-14T07:06:36.975Z,42.42
2022-12-14T07:09:04.700Z,44.17
2022-12-14T07:11:32.091Z,42.78
2022-12-14T07:14:03.246Z,40.55
2022-12-14T07:16:30.531Z,35.97
2022-12-14T07:18:57.427Z,39.05
2022-12-14T07:21:25.013Z,60.10
2022-12-14T07:23:52.740Z,52.50
2022-12-14T07:26:24.496Z,54.60
2022-12-14T07:28:52.100Z,59.38
2022-12-14T07:31:24.349Z,50.60
2022-12-14T07:33:56.285Z,44.40
2022-12-14T07:36:25.083Z,48.25
2022-12-14T07:38:52.200Z,54.45
2022-12-14T07:41:27.850Z,46.80
2022-12-14T07:43:55.223Z,48.20
2022-12-14T07:46:24.997Z,51.80
2022-12-14T07:48:53.936Z,51.60
2022-12-14T07:51:23.560Z,43.55
2022-12-14T07:53:50.713Z,63.10
2022-12-14T07:56:20.359Z,70.70
2022-12-14T07:58:47.377Z,61.05
2022-12-14T08:01:19.721Z,61.50
2022-12-14T08:03:49.058Z,74.65
2022-12-14T08:06:16.852Z,70.53
2022-12-14T08:08:44.046Z,63.10
2022-12-14T08:11:13.568Z,58.20
2022-12-14T08:13:40.828Z,62.08
2022-12-14T08:16:13.488Z,61.45
2022-12-14T08:18:40.852Z,69.07
2022-12-14T08:21:08.614Z,60.35
2022-12-14T08:23:35.897Z,54.92
2022-12-14T08:26:03.597Z,52.60
2022-12-14T08:28:31.175Z,49.55
2022-12-14T08:30:58.848Z,65.85
2022-12-14T08:33:25.658Z,66.95
2022-12-14T08:35:52.310Z,120.90
2022-12-14T08:38:19.030Z,82.35
2022-12-14T08:40:45.742Z,104.60
2022-12-14T08:43:12.415Z,116.18
2022-12-14T08:45:39.097Z,126.18
2022-12-14T08:48:06.058Z,206.15
2022-12-14T08:50:32.814Z,91.30
2022-12-14T08:52:59.612Z,341.60
2022-12-14T08:55:30.226Z,89.38
2022-12-14T08:57:58.272Z,75.32
2022-12-14T09:00:26.312Z,114.75
2022-12-14T09:02:55.006Z,90.10
2022-12-14T09:05:22.232Z,73.43
2022-12-14T09:07:49.277Z,76.00
2022-12-14T09:10:16.469Z,70.95
2022-12-14T09:12:43.746Z,58.63
2022-12-14T09:15:11.083Z,62.55
2022-12-14T09:17:38.180Z,61.70
2022-12-14T09:20:05.732Z,64.05
2022-12-14T09:22:32.695Z,75.57
2022-12-14T09:24:59.395Z,67.78
2022-12-14T09:27:26.211Z,65.70
2022-12-14T09:29:53.295Z,61.25
2022-12-14T09:32:20.365Z,69.75
2022-12-14T09:34:47.154Z,141.90
2022-12-14T09:37:14.371Z,62.83
2022-12-14T09:39:41.079Z,56.88
2022-12-14T09:42:45.389Z,63.15
2022-12-14T09:45:30.158Z,58.75
2022-12-14T09:48:08.515Z,61.97
2022-12-14T09:50:35.289Z,57.75
2022-12-14T09:53:06.164Z,66.80
2022-12-14T09:55:55.383Z,91.82
2022-12-14T09:58:30.371Z,64.00
2022-12-14T10:01:19.686Z,62.13
2022-12-14T10:04:04.328Z,67.60
2022-12-14T10:06:35.305Z,71.65
2022-12-14T10:09:05.616Z,59.33
2022-12-14T10:11:53.563Z,58.22
2022-12-14T10:14:28.286Z,49.40
2022-12-14T10:17:18.137Z,48.50
2022-12-14T10:19:51.845Z,49.72
2022-12-14T10:22:21.353Z,38.35
2022-12-14T10:24:52.435Z,37.30
2022-12-14T10:27:24.684Z,41.20
2022-12-14T10:30:04.012Z,36.25
2022-12-14T10:32:36.963Z,37.78
2022-12-14T10:35:17.430Z,36.65
2022-12-14T10:37:46.147Z,36.80
2022-12-14T10:40:34.836Z,40.67
2022-12-14T10:43:44.416Z,36.65
2022-12-14T10:46:18.839Z,47.55
2022-12-14T10:48:55.131Z,43.97
2022-12-14T10:51:25.967Z,33.80
2022-12-14T10:54:19.218Z,41.80
2022-12-14T10:56:50.241Z,39.92
2022-12-14T10:59:26.525Z,35.45
2022-12-14T11:02:08.343Z,34.72
2022-12-14T11:04:39.074Z,37.28
2022-12-14T11:07:11.364Z,54.42
2022-12-14T11:09:39.518Z,45.35
2022-12-14T11:12:07.951Z,47.38
2022-12-14T11:14:36.788Z,38.55
2022-12-14T11:17:03.995Z,49.10
2022-12-14T11:19:30.787Z,53.83
2022-12-14T11:22:14.723Z,56.65
2022-12-14T11:24:49.033Z,66.13
2022-12-14T11:27:19.157Z,37.72
2022-12-14T11:29:47.842Z,58.67
2022-12-14T11:32:20.395Z,41.50
2022-12-14T11:34:55.758Z,40.50
2022-12-14T11:37:26.110Z,54.03
2022-12-14T11:39:55.741Z,46.88
2022-12-14T11:42:22.682Z,31.05
2022-12-14T11:44:50.726Z,33.28
2022-12-14T11:47:23.465Z,56.88
2022-12-14T11:49:55.734Z,46.75
2022-12-14T11:52:25.408Z,53.60
2022-12-14T11:54:52.434Z,46.83
2022-12-14T11:57:31.099Z,43.03
2022-12-14T12:00:07.619Z,48.47
2022-12-14T12:02:37.890Z,43.90
2022-12-14T12:05:19.948Z,47.20
2022-12-14T12:07:49.706Z,57.08
2022-12-14T12:10:43.097Z,40.22
2022-12-14T12:13:24.212Z,51.67
2022-12-14T12:15:53.867Z,88.55
2022-12-14T12:18:34.125Z,75.03
2022-12-14T12:21:21.599Z,58.08
2022-12-14T12:23:57.145Z,48.45
2022-12-14T12:26:28.649Z,40.88
2022-12-14T12:29:32.081Z,115.15
2022-12-14T12:32:13.603Z,70.78
2022-12-14T12:34:48.006Z,580.28
2022-12-14T12:37:29.712Z,364.25
2022-12-14T12:40:02.768Z,465.80
2022-12-14T12:42:34.891Z,589.53
2022-12-14T12:45:21.147Z,271.33
2022-12-14T12:48:26.413Z,224.10
2022-12-14T12:51:01.219Z,325.83
2022-12-14T12:53:34.950Z,407.40
2022-12-14T12:56:08.592Z,654.33
2022-12-14T12:58:37.216Z,524.60
2022-12-14T13:01:19.956Z,499.95
2022-12-14T13:03:51.387Z,638.65
2022-12-14T13:06:22.098Z,577.58
2022-12-14T13:08:53.518Z,699.55
2022-12-14T13:11:26.451Z,646.78
2022-12-14T13:14:17.862Z,352.35
2022-12-14T13:16:45.822Z,362.42
2022-12-14T13:19:54.927Z,407.00
2022-12-14T13:22:30.347Z,774.33
2022-12-14T13:25:00.249Z,858.05
2022-12-14T13:27:58.061Z,716.35
2022-12-14T13:30:55.409Z,621.40
2022-12-14T13:33:57.487Z,681.92
2022-12-14T13:36:49.998Z,675.95
2022-12-14T13:39:54.309Z,793.45
2022-12-14T13:42:30.166Z,1360.47
2022-12-14T13:45:00.068Z,1384.40
2022-12-14T13:47:31.239Z,1350.10
2022-12-14T13:52:50.229Z,1107.13
2022-12-14T13:55:29.553Z,1123.85
2022-12-14T13:58:08.426Z,1407.07
2022-12-14T14:00:52.518Z,1046.35
2022-12-14T14:03:34.956Z,1456.18
2022-12-14T14:06:19.209Z,1329.88
2022-12-14T14:08:51.789Z,1177.32
2022-12-14T14:11:36.522Z,1006.85
2022-12-14T14:14:33.621Z,1161.57
2022-12-14T14:17:12.063Z,1384.28
2022-12-14T14:19:41.188Z,1311.68
2022-12-14T14:22:24.969Z,1251.97
2022-12-14T14:25:25.905Z,1268.10
2022-12-14T14:27:53.868Z,821.78
2022-12-14T14:30:29.063Z,986.50
2022-12-14T14:33:07.486Z,1028.93
2022-12-14T14:35:40.194Z,808.00
2022-12-14T14:38:28.737Z,995.92
2022-12-14T14:41:19.263Z,791.85
2022-12-14T14:44:01.365Z,593.88
2022-12-14T14:46:41.059Z,365.05
2022-12-14T14:49:20.212Z,409.85
2022-12-14T14:51:46.999Z,259.65
2022-12-14T14:54:44.737Z,106.30
2022-12-14T14:57:55.113Z,54.65
2022-12-14T15:00:22.853Z,55.38
2022-12-14T15:02:51.691Z,55.38
2022-12-14T15:08:28.047Z,52.92
2022-12-14T15:10:55.865Z,51.38
2022-12-14T15:13:30.265Z,53.15
2022-12-14T15:15:57.270Z,57.33
2022-12-14T15:18:26.605Z,48.13
2022-12-14T15:21:02.261Z,41.63
2022-12-14T15:23:37.404Z,54.83
2022-12-14T15:26:16.603Z,55.38
2022-12-14T15:28:47.875Z,59.05
2022-12-14T15:31:14.839Z,53.75
2022-12-14T15:33:42.897Z,57.17
2022-12-14T15:36:15.662Z,55.00
2022-12-14T15:38:51.512Z,67.90
2022-12-14T15:41:19.103Z,58.75
2022-12-14T15:43:47.435Z,61.83
2022-12-14T15:46:24.140Z,59.25
2022-12-14T15:48:59.112Z,59.38
2022-12-14T15:51:42.125Z,51.90
2022-12-14T15:54:16.146Z,56.50
2022-12-14T15:56:48.726Z,62.25
2022-12-14T15:59:19.788Z,66.30
2022-12-14T16:01:54.451Z,58.55
2022-12-14T16:04:25.715Z,69.03
2022-12-14T16:07:14.698Z,51.25
2022-12-14T16:09:50.271Z,61.17
2022-12-14T16:12:23.952Z,48.10
2022-12-14T16:14:57.281Z,60.08
2022-12-14T16:17:30.533Z,50.00
2022-12-14T16:20:22.809Z,67.88
2022-12-14T16:23:19.833Z,66.43
2022-12-14T16:25:58.286Z,77.75
2022-12-14T16:28:37.136Z,59.10
2022-12-14T16:31:18.593Z,47.83
2022-12-14T16:33:45.544Z,67.03
2022-12-14T16:36:25.870Z,46.40
2022-12-14T16:38:59.865Z,57.88
2022-12-14T16:41:58.189Z,71.67
2022-12-14T16:44:31.565Z,390.10
2022-12-14T16:47:01.005Z,156.82
2022-12-14T16:49:41.395Z,343.83
2022-12-14T16:52:20.672Z,96.68
2022-12-14T16:55:09.275Z,83.32
2022-12-14T16:57:49.461Z,114.03
2022-12-14T17:00:22.615Z,150.25
2022-12-14T17:03:16.770Z,403.90
2022-12-14T17:05:51.444Z,188.88
2022-12-14T17:08:18.982Z,316.10
2022-12-14T17:10:45.727Z,460.73
2022-12-14T17:13:12.384Z,279.67
2022-12-14T17:15:57.271Z,396.23
2022-12-14T17:20:54.972Z,286.52
2022-12-14T17:23:21.929Z,252.07
2022-12-14T17:25:48.713Z,537.55
2022-12-14T17:28:22.646Z,783.00
2022-12-14T17:30:50.746Z,979.43
2022-12-14T17:33:17.620Z,370.08
2022-12-14T17:35:44.292Z,769.00
2022-12-14T17:38:15.505Z,618.90
2022-12-14T17:40:42.742Z,900.90
2022-12-14T17:43:12.967Z,1005.55
2022-12-14T17:45:40.212Z,512.08
2022-12-14T17:48:13.138Z,627.97
2022-12-14T17:50:41.536Z,520.63
2022-12-14T17:53:14.596Z,485.92
2022-12-14T17:55:41.642Z,799.78
2022-12-14T17:58:11.657Z,819.17
2022-12-14T18:00:57.410Z,1248.03
2022-12-14T18:03:24.347Z,700.10
2022-12-14T18:05:52.444Z,786.83
2022-12-14T18:08:20.371Z,1063.35
2022-12-14T18:10:49.368Z,1029.00
2022-12-14T18:13:16.094Z,1070.47
2022-12-14T18:15:51.926Z,1038.57
2022-12-14T18:18:24.005Z,962.58
2022-12-14T18:20:53.988Z,723.13
2022-12-14T18:23:23.877Z,1152.97
2022-12-14T18:25:52.868Z,1475.43
2022-12-14T18:28:20.141Z,1359.97
2022-12-14T18:30:50.805Z,1172.57
2022-12-14T18:33:23.336Z,1368.55
2022-12-14T18:35:50.694Z,1145.30
2022-12-14T18:38:17.608Z,1261.88
2022-12-14T18:40:49.934Z,1373.20
2022-12-14T18:43:27.887Z,1275.57
2022-12-14T18:45:55.770Z,1177.82
2022-12-14T18:48:23.728Z,966.03
2022-12-14T18:50:51.647Z,1334.80
2022-12-14T18:53:20.393Z,755.00
2022-12-14T18:55:48.600Z,1086.10
2022-12-14T18:58:19.621Z,827.83
2022-12-14T19:00:46.828Z,1153.75
2022-12-14T19:03:15.037Z,1103.78
2022-12-14T19:05:42.110Z,1002.15
2022-12-14T19:08:10.385Z,1075.50
2022-12-14T19:10:40.862Z,1122.53
2022-12-14T19:13:07.811Z,702.72
2022-12-14T19:15:35.811Z,932.45
2022-12-14T19:18:02.577Z,804.28
2022-12-14T19:20:30.079Z,652.65
2022-12-14T19:22:57.086Z,933.03
2022-12-14T19:25:24.333Z,522.83
2022-12-14T19:30:39.184Z,624.22
2022-12-14T19:33:05.955Z,559.20
2022-12-14T19:35:32.813Z,191.63
2022-12-14T19:37:59.544Z,216.00
2022-12-14T19:40:26.628Z,92.93
2022-12-14T19:42:53.418Z,193.05
2022-12-14T19:45:20.279Z,135.23
2022-12-14T19:47:47.007Z,62.60
2022-12-14T19:50:15.618Z,93.65
2022-12-14T19:52:43.122Z,63.05
2022-12-14T19:55:10.573Z,54.35
2022-12-14T19:57:38.706Z,58.92
2022-12-14T20:00:07.758Z,50.80
2022-12-14T20:02:34.663Z,49.20
2022-12-14T20:05:01.556Z,55.97
2022-12-14T20:07:28.282Z,56.88
2022-12-14T20:09:55.109Z,49.95
2022-12-14T20:12:21.740Z,56.72
2022-12-14T20:14:49.407Z,61.83
2022-12-14T20:17:16.582Z,65.22
2022-12-14T20:19:43.403Z,52.55
2022-12-14T20:22:10.237Z,51.03
2022-12-14T20:24:37.130Z,57.30
2022-12-14T20:27:04.088Z,67.60
2022-12-14T20:29:30.860Z,61.58
2022-12-14T20:31:57.859Z,53.67
2022-12-14T20:34:24.667Z,50.80
2022-12-14T20:36:51.350Z,50.85
2022-12-14T20:39:18.033Z,46.83
2022-12-14T20:41:44.692Z,44.70
2022-12-14T20:44:16.072Z,42.08
2022-12-14T20:46:45.420Z,51.53
2022-12-14T20:49:17.702Z,47.25
2022-12-14T20:51:45.647Z,45.90
2022-12-14T20:54:14.806Z,43.53
2022-12-14T20:56:42.025Z,40.80
2022-12-14T20:59:10.042Z,37.20
2022-12-14T21:01:38.073Z,47.70
2022-12-14T21:04:05.369Z,42.42
2022-12-14T21:06:34.770Z,41.05
2022-12-14T21:09:01.468Z,37.70
2022-12-14T21:11:48.018Z,35.83
2022-12-14T21:14:14.970Z,40.47
2022-12-14T21:16:42.565Z,33.97
2022-12-14T21:19:11.454Z,38.05
2022-12-14T21:21:38.502Z,35.28
2022-12-14T21:24:07.288Z,38.50
2022-12-14T21:26:35.310Z,39.58
2022-12-14T21:29:02.044Z,41.80
2022-12-14T21:31:28.783Z,41.95
2022-12-14T21:33:55.653Z,38.22
2022-12-14T21:36:22.351Z,41.80
2022-12-14T21:38:49.022Z,40.17
2022-12-14T21:41:34.316Z,38.08
2022-12-14T21:44:00.980Z,37.38
2022-12-14T21:46:29.590Z,33.20
2022-12-14T21:48:56.562Z,34.20
2022-12-14T21:51:23.285Z,30.70
2022-12-14T21:54:01.328Z,31.48
2022-12-14T21:56:57.120Z,35.28
2022-12-14T21:59:32.751Z,32.30
2022-12-14T22:02:01.821Z,34.80
2022-12-14T22:04:36.314Z,31.15
2022-12-14T22:07:06.185Z,33.47
2022-12-14T22:09:32.908Z,42.10
2022-12-14T22:12:00.302Z,41.28
2022-12-14T22:14:26.954Z,32.05
2022-12-14T22:16:53.813Z,37.10
2022-12-14T22:19:22.736Z,44.67
2022-12-14T22:21:50.117Z,41.58
2022-12-14T22:24:17.525Z,41.10
2022-12-14T22:26:44.789Z,41.78
2022-12-14T22:29:12.757Z,40.17
2022-12-14T22:31:39.590Z,41.40
2022-12-14T22:34:06.929Z,43.63
2022-12-14T22:36:33.665Z,42.15
2022-12-14T22:39:00.601Z,42.78
2022-12-14T22:41:27.823Z,43.92
2022-12-14T22:43:56.552Z,41.95
2022-12-14T22:46:24.537Z,41.70
2022-12-14T22:48:51.813Z,40.75
2022-12-14T22:51:18.911Z,44.92
2022-12-14T22:53:49.572Z,41.13
2022-12-14T22:56:23.711Z,45.42
2022-12-14T22:59:00.313Z,43.83
2022-12-14T23:01:28.124Z,40.70
2022-12-14T23:03:55.286Z,43.63
2022-12-14T23:06:22.194Z,38.42
2022-12-14T23:09:07.882Z,38.53
2022-12-14T23:11:54.071Z,39.42
2022-12-14T23:14:40.017Z,44.75
2022-12-14T23:17:25.924Z,37.80
2022-12-14T23:20:11.308Z,40.40
2022-12-14T23:22:56.565Z,36.97
2022-12-14T23:28:27.149Z,41.53
2022-12-14T23:31:14.958Z,41.20
2022-12-14T23:34:00.370Z,35.20
2022-12-14T23:36:45.784Z,31.33
2022-12-14T23:39:31.710Z,28.05
2022-12-14T23:42:17.171Z,27.00
2022-12-14T23:45:02.429Z,22.30
2022-12-14T23:50:34.918Z,16.52
2022-12-14T23:56:11.739Z,14.40
